Nearby METAR Reports

 

KBJC - Broomfield/Jeffc, Colorado, USA
Distance from station: SSW 3mi, 5km
Updated: Sun, 10-Dec-2017 4:50pm MST
Clear
Clear
 Wind from NW
Wind: NW 3 mph , 6 km/h
Temperature: 55°F , 13°C
Dew Point: -2°F , -19°C
Humidity: 9%
Barometer: 30.35 inHg , 1027.8 hPa
Clouds: Clear
Visibility: 50 miles , 80 km
2017/12/10 23:50 KBJC 102350Z 31003KT 50SM SKC 13/M19 A3035
KEIK - Erie Muni, Colorado, USA
Distance from station: N 5mi, 9km
Updated: Sun, 10-Dec-2017 5:21pm MST
Clear
Clear
 Wind from calm
Wind: Calm
Temperature: 36°F , 2°C
Dew Point: 5°F , -15°C
Humidity: 27%
Barometer: 30.38 inHg , 1028.8 hPa
Clouds: Clear
Visibility: 10 miles , 16 km
2017/12/11 00:21 KEIK 110021Z AUTO 00000KT 10SM CLR 02/M15 A3038 RMK AO2 T00221149
 
KBDU - Boulder Muni, Colorado, USA
Distance from station: NW 11mi, 17km
Updated: Sun, 10-Dec-2017 5:12pm MST
Clear
Clear
 Wind from calm
Wind: Calm
Temperature: 46°F , 8°C
Dew Point: 7°F , -14°C
Humidity: 20%
Barometer: 30.33 inHg , 1027.1 hPa
Clouds: Clear
Visibility: 10 miles , 16 km
2017/12/11 00:12 KBDU 110012Z AUTO 00000KT 10SM CLR 08/M14 A3033 RMK AO2
KLMO - Longmont/Vbrand, Colorado, USA
Distance from station: NNW 16mi, 27km
Updated: Sun, 10-Dec-2017 5:15pm MST
Clear
Clear
 Wind from WNW
Wind: WNW 3 mph , 6 km/h
Temperature: 41°F , 5°C
Dew Point: 9°F , -13°C
Humidity: 26%
Barometer: 30.35 inHg , 1027.8 hPa
Clouds: Clear
Visibility: 10 miles , 16 km
2017/12/11 00:15 KLMO 110015Z AUTO 29003KT 10SM CLR 05/M13 A3035 RMK AO2 T00491135
 
KBKF - Buckley Angb/Den, Colorado, USA
Distance from station: SE 23mi, 37km
Updated: Sun, 10-Dec-2017 4:58pm MST
Few Clouds
Few Clouds
 Wind from NNE
Wind: NNE 3 mph , 6 km/h
Temperature: 52°F , 11°C
Dew Point: -13°F , -25°C
Humidity: 6%
Barometer: 30.34 inHg , 1027.4 hPa
Clouds: Few Clouds
Visibility: 10 miles , 16 km
Cloud details: Few Clouds 20000 ft
2017/12/10 23:58 KBKF 102358Z 02003KT 10SM FEW200 11/M25 A3034 RMK AO2A SLP265 T01111252 10158 20111 57004
KDEN - Denver (dia), Colorado, USA
Distance from station: ESE 23mi, 37km
Updated: Sun, 10-Dec-2017 4:53pm MST
Few Clouds
Few Clouds
 Wind from NNW
Wind: NNW 3 mph , 6 km/h
Temperature: 54°F , 12°C
Dew Point: -6°F , -21°C
Humidity: 8%
Barometer: 30.33 inHg , 1027.1 hPa
Clouds: Few Clouds
Visibility: 10 miles , 16 km
Cloud details: Few Clouds 22000 ft
2017/12/10 23:53 KDEN 102353Z 33003KT 10SM FEW220 12/M21 A3033 RMK AO2 SLP254 T01171206 10167 20117 56003
 
KAPA - Denver/Arapahoe, Colorado, USA
Distance from station: SSE 28mi, 46km
Updated: Sun, 10-Dec-2017 4:53pm MST
Few Clouds
Few Clouds
 Wind from calm
Wind: Calm
Temperature: 48°F , 9°C
Dew Point: -2°F , -19°C
Humidity: 12%
Barometer: 30.34 inHg , 1027.4 hPa
Clouds: Few Clouds
Visibility: 10 miles , 16 km
Cloud details: Few Clouds 22000 ft
2017/12/10 23:53 KAPA 102353Z 00000KT 10SM FEW220 09/M19 A3034 RMK AO2 SLP289 T00891189 10161 20089 56003
KFTG - Denver F. Range, Colorado, USA
Distance from station: ESE 30mi, 48km
Updated: Sun, 10-Dec-2017 4:47pm MST
Clear
Clear
 Wind from NW
Wind: NW 6 mph , 9 km/h
Temperature: 50°F , 10°C
Wind Chill: 48°F , 9°C
Dew Point: -4°F , -20°C
Humidity: 10%
Barometer: 30.34 inHg , 1027.4 hPa
Clouds: Clear
Visibility: 10 miles , 16 km
2017/12/10 23:47 KFTG 102347Z 32005KT 10SM SKC 10/M20 A3034
 
KFNL - Ft Collins/Lovel, Colorado, USA
Distance from station: N 35mi, 57km
Updated: Sun, 10-Dec-2017 4:56pm MST
Clear
Clear
 Wind from S
Wind: S 3 mph , 6 km/h
Temperature: 52°F , 11°C
Dew Point: 1°F , -17°C
Humidity: 12%
Barometer: 30.32 inHg , 1026.8 hPa
Clouds: Clear
Visibility: 10 miles , 16 km
2017/12/10 23:56 KFNL 102356Z AUTO 19003KT 10SM CLR 11/M17 A3032 RMK AO2 SLP271 T01061167 10144 20089 56005
K0CO - Berthoud Pass, Colorado, USA
Distance from station: WSW 38mi, 61km
Updated: Sun, 10-Dec-2017 5:12pm MST
Clear
Clear
 Wind from NNW
Wind: NNW 22 mph , 35 km/h, Gust: 25 mph , 41 km/h
Temperature: 18°F , -8°C
Wind Chill: 1°F , -17°C
Dew Point: 5°F , -15°C
Humidity: 58%
Barometer: 30.55 inHg , 1034.5 hPa
Clouds: Clear
Visibility: 10 miles , 16 km
2017/12/11 00:12 K0CO 110012Z AUTO 33019G22KT 10SM CLR M08/M15 A3055 RMK AO2
 
KGXY - Greeley/Weld, Colorado, USA
Distance from station: NE 41mi, 66km
Updated: Sun, 10-Dec-2017 4:56pm MST
Clear
Clear
 Wind from NW
Wind: NW 3 mph , 6 km/h
Temperature: 37°F , 3°C
Dew Point: 5°F , -15°C
Humidity: 26%
Barometer: 30.32 inHg , 1026.8 hPa
Clouds: Clear
Visibility: 10 miles , 16 km
2017/12/10 23:56 KGXY 102356Z AUTO 31003KT 10SM CLR 03/M15 A3032 RMK AO2 SLP315 T00331150 10139 20033 55003